Sargeant, MN (55973)

6:29 AM CST on November 24, 2014 (GMT -0600)
Steve's Weather Station | Change Station
CLOSE
Current Station
Personal Weather Station
Location: Grand Meadow, MN
Elevation: 1296 ft
Nearby Weather Stations
Active Advisory: Special Statement

Elev 1296 ft 43.83 °N, 92.61 °W | Updated 34 seconds ago

Overcast
Overcast
24.2 °F
Feels Like 12 °F
N
14.7
Wind Variable Wind from WNW
Gusts 16.7 mph

Today
High -- | Low -- °F
--% Chance of Precip.
Yesterday
High -- | Low -- °F
Precip. -- in
7:16 AM 4:38 PM
Waxing Crescent, 5% visible
Pressure 29.31 in
Visibility 4.0 miles
Clouds Overcast 600 ft
Windchill 12 °F
Dew Point 22 °F
Humidity 90%
Rainfall 0.00 in
Snow Depth Not available.
UV 0 out of 12
Pollen .10 out of 12
Air Quality Not available.
Flu Activity Not available.
METAR KAUM 241216Z AUTO 30021G27KT 4SM BR OVC006 M05/M06 A2931 RMK AO2

More Conditions Fewer Conditions

Pressure 29.31 in
Visibility 4.0 miles
Clouds Overcast 600 ft
Windchill 12 °F
Dew Point 22 °F
Humidity 90%
Rainfall 0.00 in
Snow Depth Not available.
UV 0 out of 12
Pollen .10 out of 12
Air Quality Not available.
Flu Activity Not available.
METAR KAUM 241216Z AUTO 30021G27KT 4SM BR OVC006 M05/M06 A2931 RMK AO2

More Conditions Fewer Conditions

10-Day Weather Forecast

Almanac

Astronomy

Nov. 24, 2014 Rise Set
Actual Time
Civil Twilight
Nautical Twilight
Astronomical Twilight
Moon
Length of Visible Light
Length of Day
Tomorrow will be .
, % of the Moon is Illuminated

Today's Extremes

State Highs State Lows

Community

WunderPhotos

Upload Photos

1,773,319 photos uploaded!

WunderBlogs® & News

Nearby

Air Quality

  Air Quality AQ Index Pollutant
Not available.

Snow Depth

Station Depth Elevation

Earthquake Activity

City Distance Mag. Time & Date
Minimum magnitude displayed is 2.5.

Coastal Water Temperatures

Place Temperature

Nearby Weather Stations